Time;durP1;ratioP1;P1;durP2;ratioP2;P2;SDS_P1;SDS_P2;PMS_P1;PMS_P2;Temp;Humidity;BMP_temperature;BMP_pressure;BME280_temperature;BME280_humidity;BME280_pressure;Samples;Min_cycle;Max_cycle;Signal;HPM_P1;HPM_P2
2020/12/12 00:00:29;;;;;;;36.17;21.05;;;;;;;2.95;100.00;98194.19;10498190;28;20053;-71
2020/12/12 00:05:30;;;;;;;38.67;20.92;;;;;;;3.01;100.00;98192.09;10498867;28;20044;-72
2020/12/12 00:10:31;;;;;;;37.03;21.48;;;;;;;2.94;100.00;98182.22;10499769;28;20044;-73
2020/12/12 00:15:32;;;;;;;37.85;21.27;;;;;;;3.00;100.00;98184.41;10497573;28;20053;-72
2020/12/12 00:20:34;;;;;;;38.75;22.48;;;;;;;3.03;100.00;98180.84;10498637;28;20041;-72
2020/12/12 00:25:35;;;;;;;36.53;21.10;;;;;;;3.11;100.00;98181.19;10498251;28;20049;-72
2020/12/12 00:30:35;;;;;;;35.53;21.02;;;;;;;3.10;100.00;98175.19;10496889;28;20059;-72
2020/12/12 00:35:36;;;;;;;34.90;21.30;;;;;;;3.14;100.00;98178.44;10498012;28;20082;-71
2020/12/12 00:40:37;;;;;;;38.53;23.73;;;;;;;3.18;100.00;98178.19;10496811;28;20047;-72
2020/12/12 00:45:38;;;;;;;33.38;20.30;;;;;;;3.10;100.00;98184.72;10497461;28;20056;-71
2020/12/12 00:50:44;;;;;;;34.75;19.73;;;;;;;3.14;100.00;98187.03;10496375;28;20072;-71
2020/12/12 00:55:45;;;;;;;32.45;19.85;;;;;;;3.15;100.00;98193.84;10497223;28;20053;-71
2020/12/12 01:00:47;;;;;;;34.70;20.45;;;;;;;3.15;100.00;98186.09;10495290;28;20044;-71
2020/12/12 01:05:48;;;;;;;38.03;22.58;;;;;;;3.20;100.00;98189.22;10496003;28;20056;-71
2020/12/12 01:10:49;;;;;;;36.67;21.80;;;;;;;3.22;100.00;98179.66;10496165;28;20123;-71
2020/12/12 01:15:50;;;;;;;35.05;21.55;;;;;;;3.21;100.00;98188.31;10495649;28;20496;-71
2020/12/12 01:20:51;;;;;;;37.45;20.67;;;;;;;3.23;100.00;98201.16;10494673;28;20045;-71
2020/12/12 01:25:52;;;;;;;31.23;19.85;;;;;;;3.24;100.00;98198.50;10495617;28;20052;-71
2020/12/12 01:30:53;;;;;;;33.97;19.08;;;;;;;3.23;100.00;98196.00;10494261;28;20516;-71
2020/12/12 01:35:54;;;;;;;36.35;20.85;;;;;;;3.25;100.00;98210.47;10495164;28;20127;-70
2020/12/12 01:40:55;;;;;;;31.98;19.13;;;;;;;3.29;100.00;98211.97;10494937;28;20044;-71
2020/12/12 01:45:57;;;;;;;32.55;18.95;;;;;;;3.28;100.00;98212.06;10495235;28;20576;-71
2020/12/12 01:50:58;;;;;;;31.27;19.52;;;;;;;3.28;100.00;98215.47;10494258;28;20083;-71
2020/12/12 01:55:59;;;;;;;32.42;19.88;;;;;;;3.26;100.00;98212.13;10494220;28;20131;-71
2020/12/12 02:01:00;;;;;;;33.35;19.88;;;;;;;3.33;100.00;98213.44;10492762;28;20052;-71
2020/12/12 02:06:02;;;;;;;37.97;21.33;;;;;;;3.41;100.00;98206.03;10493696;28;20515;-71
2020/12/12 02:11:04;;;;;;;31.73;19.15;;;;;;;3.36;100.00;98209.81;10493444;28;20048;-71
2020/12/12 02:16:05;;;;;;;33.35;19.88;;;;;;;3.34;100.00;98204.78;10493882;28;20052;-71
2020/12/12 02:21:07;;;;;;;33.05;19.25;;;;;;;3.36;100.00;98202.06;10493236;28;20689;-71
2020/12/12 02:26:08;;;;;;;34.80;20.08;;;;;;;3.34;100.00;98198.78;10493353;28;20106;-71
2020/12/12 02:31:09;;;;;;;31.92;17.73;;;;;;;3.39;100.00;98207.06;10491864;28;20041;-70
2020/12/12 02:36:10;;;;;;;31.30;19.48;;;;;;;3.39;100.00;98201.91;10492637;28;20045;-70
2020/12/12 02:41:11;;;;;;;30.52;18.83;;;;;;;3.40;100.00;98206.97;10491990;28;20044;-70
2020/12/12 02:46:12;;;;;;;33.30;20.25;;;;;;;3.52;100.00;98213.16;10492963;28;20056;-71
2020/12/12 02:51:13;;;;;;;28.55;17.98;;;;;;;3.47;100.00;98204.84;10492440;28;20155;-71
2020/12/12 02:56:15;;;;;;;31.17;18.92;;;;;;;3.53;100.00;98203.66;10492426;28;20094;-71
2020/12/12 03:01:16;;;;;;;36.03;22.45;;;;;;;3.49;100.00;98199.59;10491394;28;20101;-71
2020/12/12 03:06:18;;;;;;;31.02;19.08;;;;;;;3.48;100.00;98195.34;10492240;28;20098;-71
2020/12/12 03:11:18;;;;;;;30.52;18.58;;;;;;;3.49;100.00;98202.19;10492011;28;20389;-72
2020/12/12 03:16:19;;;;;;;27.98;17.48;;;;;;;3.41;100.00;98200.88;10493640;28;20405;-73
2020/12/12 03:21:20;;;;;;;31.75;19.48;;;;;;;3.45;100.00;98201.53;10492404;28;20045;-72
2020/12/12 03:26:21;;;;;;;29.77;17.85;;;;;;;3.46;100.00;98208.34;10492197;28;20110;-72
2020/12/12 03:31:22;;;;;;;35.33;18.33;;;;;;;3.44;100.00;98216.22;10490732;28;20056;-73
2020/12/12 03:36:23;;;;;;;30.17;18.48;;;;;;;3.53;100.00;98222.59;10491822;28;20052;-73
2020/12/12 03:41:24;;;;;;;30.02;18.60;;;;;;;3.48;100.00;98222.03;10491156;28;20048;-72
2020/12/12 03:46:25;;;;;;;31.38;18.38;;;;;;;3.50;100.00;98225.38;10491673;28;20098;-72
2020/12/12 03:51:26;;;;;;;28.73;17.90;;;;;;;3.56;100.00;98226.72;10493765;28;20052;-72
2020/12/12 03:56:27;;;;;;;29.05;17.40;;;;;;;3.58;100.00;98228.31;10498858;28;20463;-72
2020/12/12 04:01:28;;;;;;;33.05;19.90;;;;;;;3.64;100.00;98229.69;10497847;28;20056;-72
2020/12/12 04:06:29;;;;;;;31.08;19.15;;;;;;;3.63;100.00;98225.44;10498375;28;20420;-72
2020/12/12 04:11:30;;;;;;;36.83;20.55;;;;;;;3.71;100.00;98234.38;10498521;28;20055;-72
2020/12/12 04:16:31;;;;;;;29.58;18.38;;;;;;;3.63;100.00;98241.78;10498280;28;20048;-72
2020/12/12 04:21:32;;;;;;;26.90;17.63;;;;;;;3.65;100.00;98244.28;10497581;28;20496;-72
2020/12/12 04:26:33;;;;;;;27.40;17.38;;;;;;;3.70;100.00;98247.44;10498317;28;20049;-73
2020/12/12 04:31:34;;;;;;;27.10;16.55;;;;;;;3.74;100.00;98248.91;10496652;28;20048;-72
2020/12/12 04:36:35;;;;;;;28.58;16.65;;;;;;;3.77;100.00;98253.88;10497829;28;20048;-72
2020/12/12 04:41:40;;;;;;;28.35;16.70;;;;;;;3.79;100.00;98250.28;10497086;28;20416;-73
2020/12/12 04:46:42;;;;;;;26.40;15.88;;;;;;;3.79;100.00;98254.63;10497672;28;20127;-72
2020/12/12 04:51:47;;;;;;;28.70;17.05;;;;;;;3.73;100.00;98252.41;10496720;28;20047;-72
2020/12/12 04:56:48;;;;;;;28.75;16.38;;;;;;;3.80;100.00;98253.72;10496583;28;20052;-72
2020/12/12 05:01:50;;;;;;;28.00;17.02;;;;;;;3.81;100.00;98256.19;10495259;28;20044;-72
2020/12/12 05:06:51;;;;;;;26.77;15.85;;;;;;;3.85;100.00;98256.84;10496022;28;20052;-72
2020/12/12 05:11:52;;;;;;;25.20;15.70;;;;;;;3.87;100.00;98258.41;10477944;28;20117;-72
2020/12/12 05:16:57;;;;;;;25.50;14.93;;;;;;;3.82;100.00;98257.84;10496488;28;20060;-72
2020/12/12 05:22:01;;;;;;;25.83;15.10;;;;;;;3.86;100.00;98255.91;10495336;28;20119;-72
2020/12/12 05:27:02;;;;;;;25.45;15.95;;;;;;;3.86;100.00;98261.06;10495769;28;20052;-72
2020/12/12 05:32:04;;;;;;;25.95;15.00;;;;;;;3.88;100.00;98265.25;10476581;28;20447;-72
2020/12/12 05:37:05;;;;;;;26.65;16.23;;;;;;;3.90;100.00;98262.56;10495446;28;20048;-72
2020/12/12 05:42:06;;;;;;;22.52;13.77;;;;;;;3.96;100.00;98262.19;10494527;28;20094;-73
2020/12/12 05:47:07;;;;;;;24.35;14.77;;;;;;;3.97;100.00;98256.06;10494626;28;20049;-73
2020/12/12 05:52:09;;;;;;;24.55;14.15;;;;;;;3.97;100.00;98260.41;10494231;28;20131;-73
2020/12/12 05:57:11;;;;;;;24.35;13.38;;;;;;;3.99;100.00;98264.59;10494346;28;20488;-73
2020/12/12 06:02:14;;;;;;;22.05;13.85;;;;;;;4.02;100.00;98277.31;10493302;28;20056;-73
2020/12/12 06:07:26;;;;;;;23.33;14.25;;;;;;;4.04;100.00;98280.66;10493729;28;20123;-72
2020/12/12 06:12:29;;;;;;;22.65;13.43;;;;;;;4.09;100.00;98286.38;10493548;28;20080;-73
2020/12/12 06:17:50;;;;;;;24.83;14.23;;;;;;;4.12;100.00;98281.00;10493208;28;20048;-73
2020/12/12 06:22:53;;;;;;;27.70;15.95;;;;;;;4.10;100.00;98295.00;10493375;28;20098;-73
2020/12/12 06:27:55;;;;;;;27.25;15.77;;;;;;;4.11;100.00;98292.31;10493126;28;20392;-73
2020/12/12 06:33:04;;;;;;;29.52;17.38;;;;;;;4.14;100.00;98297.28;10492060;28;20459;-72
2020/12/12 06:38:17;;;;;;;30.17;16.88;;;;;;;4.13;100.00;98303.38;10492863;28;20126;-73
2020/12/12 06:43:32;;;;;;;24.92;15.50;;;;;;;4.14;100.00;98319.75;10492470;28;20045;-73
2020/12/12 06:48:34;;;;;;;28.10;16.38;;;;;;;4.18;100.00;98318.63;10492901;28;20110;-73
2020/12/12 06:53:35;;;;;;;25.60;15.13;;;;;;;4.22;100.00;98327.88;10491938;28;20048;-73
2020/12/12 06:58:37;;;;;;;23.85;14.20;;;;;;;4.20;100.00;98330.56;10492680;28;20106;-72
2020/12/12 07:03:38;;;;;;;25.45;15.02;;;;;;;4.19;100.00;98335.84;10482573;28;20040;-72
2020/12/12 07:08:39;;;;;;;27.05;15.35;;;;;;;4.18;100.00;98337.59;10492682;28;20423;-72
2020/12/12 07:13:40;;;;;;;23.98;14.88;;;;;;;4.19;100.00;98344.44;10491992;28;20048;-72
2020/12/12 07:18:42;;;;;;;30.77;17.33;;;;;;;4.24;100.00;98344.16;10483424;28;20056;-72
2020/12/12 07:23:45;;;;;;;31.25;18.27;;;;;;;4.26;100.00;98358.69;10491825;28;20106;-72
2020/12/12 07:28:46;;;;;;;33.55;18.95;;;;;;;4.20;100.00;98361.63;10500177;28;20056;-72
2020/12/12 07:33:47;;;;;;;31.67;19.02;;;;;;;4.18;100.00;98366.06;10490783;28;20053;-73
2020/12/12 07:38:48;;;;;;;33.67;19.25;;;;;;;4.25;100.00;98377.72;10488941;28;20094;-73
2020/12/12 07:43:54;;;;;;;34.17;22.38;;;;;;;4.28;100.00;98385.28;10485702;28;20048;-71
2020/12/12 07:49:00;;;;;;;37.00;22.97;;;;;;;4.28;100.00;98381.88;10495440;28;20053;-72
2020/12/12 07:54:17;;;;;;;37.20;22.90;;;;;;;4.38;100.00;98392.50;10499657;28;20570;-72
2020/12/12 07:59:21;;;;;;;37.20;22.70;;;;;;;4.41;100.00;98398.34;10491212;28;20102;-72
2020/12/12 08:04:22;;;;;;;37.50;23.30;;;;;;;4.48;100.00;98411.72;10489678;28;20053;-72
2020/12/12 08:09:25;;;;;;;30.30;19.70;;;;;;;4.52;100.00;98408.06;10490582;28;20075;-74
2020/12/12 08:14:29;;;;;;;30.70;18.20;;;;;;;4.56;100.00;98420.72;10487441;28;20538;-73
2020/12/12 08:19:30;;;;;;;29.15;18.60;;;;;;;4.65;100.00;98429.66;10490751;28;20106;-73
2020/12/12 08:24:31;;;;;;;34.88;21.35;;;;;;;4.73;100.00;98432.59;10489891;28;20048;-72
2020/12/12 08:29:43;;;;;;;35.22;20.83;;;;;;;4.84;100.00;98440.56;10486813;28;20105;-72
2020/12/12 08:34:44;;;;;;;35.13;20.23;;;;;;;4.94;100.00;98448.59;10488716;28;20048;-73
2020/12/12 08:39:45;;;;;;;33.08;20.10;;;;;;;4.99;100.00;98454.31;10484277;28;20048;-72
2020/12/12 08:44:46;;;;;;;32.75;18.42;;;;;;;5.06;100.00;98461.63;10487823;28;20137;-72
2020/12/12 08:49:55;;;;;;;30.08;19.00;;;;;;;5.09;100.00;98466.59;10486972;28;20121;-72
2020/12/12 08:55:03;;;;;;;31.13;18.75;;;;;;;5.14;100.00;98474.94;10480909;28;20110;-72
2020/12/12 09:00:05;;;;;;;32.63;18.20;;;;;;;5.20;100.00;98478.06;10478317;28;20627;-72
2020/12/12 09:05:11;;;;;;;32.58;17.88;;;;;;;5.26;100.00;98485.47;10480330;28;20049;-72
2020/12/12 09:10:14;;;;;;;26.15;15.90;;;;;;;5.30;100.00;98486.94;10484131;28;20086;-72
2020/12/12 09:15:15;;;;;;;20.50;13.20;;;;;;;5.34;100.00;98502.19;10496055;28;20057;-72
2020/12/12 09:20:16;;;;;;;22.80;13.90;;;;;;;5.40;100.00;98511.34;10486682;28;20078;-73
2020/12/12 09:25:17;;;;;;;24.08;14.25;;;;;;;5.44;100.00;98511.06;10485955;28;20064;-72
2020/12/12 09:30:18;;;;;;;22.02;13.10;;;;;;;5.53;100.00;98520.03;10493000;28;20049;-72
2020/12/12 09:35:19;;;;;;;23.42;13.95;;;;;;;5.58;100.00;98521.41;10490175;28;20645;-72
2020/12/12 09:40:20;;;;;;;23.35;12.88;;;;;;;5.71;100.00;98525.78;10480933;28;20040;-72
2020/12/12 09:45:21;;;;;;;22.75;13.07;;;;;;;5.82;100.00;98526.78;10479033;28;20507;-72
2020/12/12 09:50:33;;;;;;;21.83;11.90;;;;;;;5.94;100.00;98532.97;10474199;28;20419;-72
2020/12/12 09:55:36;;;;;;;14.60;9.00;;;;;;;6.06;100.00;98546.91;10486792;28;20094;-72
2020/12/12 10:00:38;;;;;;;15.68;8.30;;;;;;;6.16;100.00;98547.97;10482669;28;20561;-73
2020/12/12 10:05:40;;;;;;;12.63;7.70;;;;;;;6.18;100.00;98559.09;10486257;28;20466;-73
2020/12/12 10:10:41;;;;;;;10.43;6.05;;;;;;;6.23;100.00;98564.81;10484789;28;20466;-74
2020/12/12 10:15:42;;;;;;;15.65;8.85;;;;;;;6.23;100.00;98559.63;10487988;28;20051;-71
2020/12/12 10:20:43;;;;;;;11.55;6.82;;;;;;;6.25;100.00;98565.53;10475782;28;20056;-70
2020/12/12 10:25:44;;;;;;;17.17;9.82;;;;;;;6.28;100.00;98573.16;10485154;28;20055;-72
2020/12/12 10:30:45;;;;;;;13.73;7.53;;;;;;;6.30;100.00;98568.66;10484312;28;20040;-72
2020/12/12 10:35:45;;;;;;;10.32;6.28;;;;;;;6.38;100.00;98564.66;10466165;28;20057;-72
2020/12/12 10:40:58;;;;;;;11.60;7.75;;;;;;;6.50;100.00;98570.78;10482519;28;20074;-72
2020/12/12 10:46:02;;;;;;;11.82;7.65;;;;;;;6.55;100.00;98573.91;10490937;28;20052;-72
2020/12/12 10:51:03;;;;;;;12.18;7.70;;;;;;;6.60;100.00;98577.03;10475897;28;20043;-72
2020/12/12 10:56:04;;;;;;;14.45;7.30;;;;;;;6.73;100.00;98579.63;10484208;28;20063;-72
2020/12/12 11:01:05;;;;;;;12.07;6.82;;;;;;;6.74;100.00;98587.34;10477746;28;20051;-71
2020/12/12 11:06:05;;;;;;;9.63;6.40;;;;;;;6.80;100.00;98586.94;10487612;28;20081;-72
2020/12/12 11:11:06;;;;;;;10.95;6.93;;;;;;;6.82;100.00;98584.19;10488625;28;20054;-72
2020/12/12 11:16:20;;;;;;;10.48;6.53;;;;;;;6.90;100.00;98586.31;10479888;28;20045;-72
2020/12/12 11:21:22;;;;;;;11.10;6.10;;;;;;;6.85;100.00;98595.25;10475606;28;20072;-70
2020/12/12 11:26:23;;;;;;;9.60;5.85;;;;;;;6.90;100.00;98594.09;10484782;28;20507;-71
2020/12/12 11:31:25;;;;;;;7.85;5.53;;;;;;;6.93;100.00;98597.31;10481584;28;20049;-71
2020/12/12 11:41:44;;;;;;;7.30;4.82;;;;;;;7.05;100.00;98611.25;10485206;28;20558;-70
2020/12/12 11:46:49;;;;;;;8.60;6.13;;;;;;;7.17;100.00;98605.19;10491749;28;20057;-70
2020/12/12 11:51:50;;;;;;;9.07;5.35;;;;;;;7.17;100.00;98623.41;10483788;28;20048;-70
2020/12/12 11:56:51;;;;;;;9.48;6.75;;;;;;;7.23;100.00;98621.22;10481763;28;20734;-70
2020/12/12 12:01:55;;;;;;;10.98;6.20;;;;;;;7.27;100.00;98624.44;10484483;28;20051;-69
2020/12/12 12:06:57;;;;;;;9.38;6.13;;;;;;;7.28;100.00;98628.72;10481431;28;20492;-70
2020/12/12 12:11:58;;;;;;;9.85;6.75;;;;;;;7.20;100.00;98633.63;10466731;28;20106;-71
2020/12/12 12:16:59;;;;;;;11.27;6.90;;;;;;;7.10;100.00;98643.00;10486850;28;20133;-72
2020/12/12 12:22:00;;;;;;;14.90;8.65;;;;;;;7.15;100.00;98643.50;10485012;28;20076;-73
2020/12/12 12:27:03;;;;;;;12.13;8.68;;;;;;;7.21;100.00;98643.09;10496768;28;20485;-72
2020/12/12 12:32:04;;;;;;;14.20;8.68;;;;;;;7.15;100.00;98659.13;10483576;28;20059;-72
2020/12/12 12:37:18;;;;;;;16.63;9.70;;;;;;;7.13;100.00;98655.78;10497333;28;20044;-73
2020/12/12 12:42:22;;;;;;;14.18;10.02;;;;;;;7.19;100.00;98661.41;10480364;28;20044;-72
2020/12/12 12:47:23;;;;;;;14.05;9.23;;;;;;;7.23;100.00;98662.03;10490366;28;20505;-73
2020/12/12 12:52:24;;;;;;;16.55;9.80;;;;;;;7.30;100.00;98664.13;10486664;28;20079;-73
2020/12/12 12:57:25;;;;;;;12.77;8.63;;;;;;;7.27;100.00;98673.88;10487211;28;20056;-72
2020/12/12 13:02:25;;;;;;;12.88;9.23;;;;;;;7.22;100.00;98671.59;10493109;28;20040;-72
2020/12/12 13:07:27;;;;;;;13.63;8.85;;;;;;;7.20;100.00;98673.50;10474520;28;20055;-71
2020/12/12 13:12:27;;;;;;;14.43;8.85;;;;;;;7.21;100.00;98676.94;10488077;28;20051;-72
2020/12/12 13:17:28;;;;;;;14.60;9.65;;;;;;;7.21;100.00;98680.31;10487816;28;20045;-71
2020/12/12 13:22:29;;;;;;;19.13;9.20;;;;;;;7.16;100.00;98692.00;10486924;28;20362;-71
2020/12/12 13:27:31;;;;;;;17.38;10.73;;;;;;;7.19;100.00;98695.22;10480203;28;20052;-72
2020/12/12 13:32:32;;;;;;;14.10;8.68;;;;;;;7.22;100.00;98708.03;10477863;28;20558;-72
2020/12/12 13:37:34;;;;;;;15.00;9.43;;;;;;;7.24;100.00;98713.97;10476685;28;20404;-74
2020/12/12 13:42:35;;;;;;;12.88;9.02;;;;;;;7.30;100.00;98704.91;10484297;28;20067;-72
2020/12/12 13:47:37;;;;;;;16.48;9.65;;;;;;;7.32;100.00;98718.63;10481443;28;20049;-72
2020/12/12 13:52:38;;;;;;;17.95;11.15;;;;;;;7.32;100.00;98726.44;10490021;28;20387;-71
2020/12/12 13:57:39;;;;;;;18.00;10.25;;;;;;;7.28;100.00;98725.00;10483995;28;20055;-71
2020/12/12 14:02:40;;;;;;;18.13;10.93;;;;;;;7.25;100.00;98733.00;10480400;28;20050;-71
2020/12/12 14:07:44;;;;;;;17.77;11.30;;;;;;;7.26;100.00;98747.69;10491653;28;20094;-71
2020/12/12 14:23:27;;;;;;;20.75;12.25;;;;;;;7.23;100.00;98773.91;10492500;28;20125;-73
2020/12/12 14:28:29;;;;;;;22.40;12.85;;;;;;;7.26;100.00;98782.34;10485266;28;20052;-71
2020/12/12 14:33:30;;;;;;;20.45;13.05;;;;;;;7.17;100.00;98798.56;10483746;28;20044;-70
2020/12/12 14:38:31;;;;;;;16.83;11.50;;;;;;;7.14;100.00;98808.34;10490039;28;20060;-70
2020/12/12 14:43:32;;;;;;;22.67;13.10;;;;;;;7.11;100.00;98813.75;10487357;28;20544;-70
2020/12/12 14:48:33;;;;;;;19.75;12.43;;;;;;;7.09;100.00;98818.22;10484344;28;20428;-70
2020/12/12 14:53:34;;;;;;;21.42;12.80;;;;;;;7.11;100.00;98826.78;10482384;28;20045;-70
2020/12/12 14:58:35;;;;;;;19.13;11.85;;;;;;;7.02;100.00;98837.75;10492581;28;20131;-70
2020/12/12 15:03:36;;;;;;;22.13;13.13;;;;;;;7.01;100.00;98842.13;10488864;28;20095;-70
2020/12/12 15:08:37;;;;;;;19.63;12.90;;;;;;;6.99;100.00;98858.78;10481992;28;20107;-69
2020/12/12 15:13:38;;;;;;;21.17;13.48;;;;;;;7.02;100.00;98864.59;10488579;28;20088;-69
2020/12/12 15:18:40;;;;;;;19.80;13.30;;;;;;;6.97;100.00;98863.22;10493235;28;20044;-71
2020/12/12 15:23:40;;;;;;;21.73;13.23;;;;;;;6.96;100.00;98879.78;10483451;28;20049;-71
2020/12/12 15:28:41;;;;;;;22.80;13.40;;;;;;;6.97;100.00;98884.88;10484019;28;20052;-71
2020/12/12 15:33:42;;;;;;;20.60;14.25;;;;;;;7.01;100.00;98891.53;10468565;28;20044;-71
2020/12/12 15:38:43;;;;;;;25.27;16.58;;;;;;;6.97;100.00;98900.47;10482777;28;20056;-71
2020/12/12 15:43:44;;;;;;;24.33;15.88;;;;;;;6.95;100.00;98901.53;10476391;28;20044;-71
2020/12/12 15:48:45;;;;;;;23.92;15.50;;;;;;;6.93;100.00;98904.22;10491146;28;20056;-72
2020/12/12 15:53:46;;;;;;;28.20;18.92;;;;;;;6.92;100.00;98914.69;10491238;28;20106;-71
2020/12/12 15:58:47;;;;;;;26.90;17.10;;;;;;;6.91;100.00;98916.47;10497776;28;20053;-72
2020/12/12 16:03:48;;;;;;;25.27;17.60;;;;;;;6.87;100.00;98936.63;10482463;28;20045;-72
2020/12/12 16:08:50;;;;;;;32.67;20.35;;;;;;;6.95;100.00;98943.13;10490868;28;20048;-71
2020/12/12 16:13:52;;;;;;;31.25;18.98;;;;;;;6.90;100.00;98950.38;10497858;28;20536;-71
2020/12/12 16:18:53;;;;;;;29.23;18.00;;;;;;;6.86;100.00;98965.31;10498711;28;20052;-71
2020/12/12 16:23:54;;;;;;;28.15;18.13;;;;;;;6.84;100.00;98975.84;10487061;28;20040;-71
2020/12/12 16:28:55;;;;;;;29.17;18.60;;;;;;;6.80;100.00;98982.19;10488312;28;20052;-72
2020/12/12 16:33:56;;;;;;;31.02;18.15;;;;;;;6.81;100.00;98994.22;10473102;28;20398;-72
2020/12/12 16:38:57;;;;;;;36.60;23.25;;;;;;;6.83;100.00;99000.19;10478012;28;20049;-72
2020/12/12 16:43:58;;;;;;;31.33;19.75;;;;;;;6.82;100.00;99003.69;10473614;28;20045;-72
2020/12/12 16:48:59;;;;;;;31.30;18.67;;;;;;;6.88;100.00;99018.09;10484365;28;20045;-72
2020/12/12 16:54:00;;;;;;;28.73;18.40;;;;;;;6.85;100.00;99024.34;10488443;28;20051;-72
2020/12/12 16:59:02;;;;;;;35.95;22.85;;;;;;;6.85;100.00;99039.09;10496569;28;20488;-71
2020/12/12 17:04:04;;;;;;;25.83;17.35;;;;;;;6.84;100.00;99040.88;10486309;28;20068;-72
2020/12/12 17:09:07;;;;;;;29.10;17.02;;;;;;;6.84;100.00;99040.88;10469864;28;20487;-71
2020/12/12 17:14:09;;;;;;;27.70;17.35;;;;;;;6.80;100.00;99048.94;10494050;28;20219;-71
2020/12/12 17:19:11;;;;;;;29.77;19.10;;;;;;;6.86;100.00;99054.59;10487805;28;20664;-71
2020/12/12 17:24:15;;;;;;;37.80;21.48;;;;;;;6.88;100.00;99062.31;10478486;28;20169;-72
2020/12/12 17:29:18;;;;;;;39.05;22.13;;;;;;;6.83;100.00;99065.19;10488176;28;20049;-72
2020/12/12 17:34:19;;;;;;;39.83;23.73;;;;;;;6.82;100.00;99068.72;10485972;28;20040;-71
2020/12/12 17:39:20;;;;;;;36.50;22.90;;;;;;;6.85;100.00;99072.91;10494377;28;20487;-71
2020/12/12 17:44:21;;;;;;;44.88;25.85;;;;;;;6.87;100.00;99077.06;10493347;28;20052;-73
2020/12/12 17:49:22;;;;;;;41.58;24.45;;;;;;;6.93;100.00;99093.25;10492509;28;20097;-72
2020/12/12 17:54:23;;;;;;;39.13;23.63;;;;;;;6.87;100.00;99097.03;10484392;28;20067;-73
2020/12/12 17:59:25;;;;;;;42.17;23.63;;;;;;;6.87;100.00;99105.69;10489914;28;20080;-73
2020/12/12 18:04:26;;;;;;;40.35;23.30;;;;;;;6.87;100.00;99108.28;10484679;28;20049;-72
2020/12/12 18:09:27;;;;;;;42.47;24.55;;;;;;;6.91;100.00;99113.31;10485622;28;20060;-75
2020/12/12 18:14:30;;;;;;;39.28;24.70;;;;;;;6.93;100.00;99124.44;10476778;28;20106;-73
2020/12/12 18:19:31;;;;;;;39.75;23.55;;;;;;;6.92;100.00;99115.81;10485570;28;20078;-72
2020/12/12 18:24:32;;;;;;;37.38;22.73;;;;;;;6.90;100.00;99122.06;10484002;28;20052;-72
2020/12/12 18:29:34;;;;;;;36.78;22.67;;;;;;;6.91;100.00;99126.31;10485012;28;20048;-72
2020/12/12 18:34:35;;;;;;;31.20;20.00;;;;;;;6.92;100.00;99134.03;10482039;28;20048;-72
2020/12/12 18:39:36;;;;;;;39.70;24.17;;;;;;;6.92;100.00;99130.56;10486720;28;20056;-72
2020/12/12 18:44:37;;;;;;;31.73;20.75;;;;;;;6.85;100.00;99140.53;10492205;28;20492;-72
2020/12/12 18:49:38;;;;;;;36.10;23.50;;;;;;;6.88;100.00;99141.19;10466723;28;20064;-72
2020/12/12 18:54:39;;;;;;;36.88;23.15;;;;;;;6.87;100.00;99155.09;10468182;28;20049;-72
2020/12/12 18:59:40;;;;;;;38.28;23.48;;;;;;;6.91;100.00;99154.94;10483207;28;20103;-73
2020/12/12 19:04:41;;;;;;;36.88;22.40;;;;;;;6.87;100.00;99159.47;10481918;28;20044;-72
2020/12/12 19:09:42;;;;;;;37.50;23.10;;;;;;;6.85;100.00;99164.78;10490732;28;20044;-72
2020/12/12 19:14:43;;;;;;;36.97;23.50;;;;;;;6.85;100.00;99164.78;10484711;28;20049;-72
2020/12/12 19:19:44;;;;;;;39.83;22.80;;;;;;;6.82;100.00;99167.53;10483688;28;20065;-72
2020/12/12 19:24:48;;;;;;;42.65;24.80;;;;;;;6.93;100.00;99173.88;10499055;28;20094;-72
2020/12/12 19:29:50;;;;;;;33.88;21.88;;;;;;;6.85;100.00;99182.97;10487255;28;20040;-72
2020/12/12 19:34:51;;;;;;;37.38;23.60;;;;;;;6.79;100.00;99183.34;10491449;28;20086;-72
2020/12/12 19:39:52;;;;;;;37.50;22.98;;;;;;;6.79;100.00;99188.53;10483923;28;20044;-72
2020/12/12 19:44:56;;;;;;;35.83;23.00;;;;;;;6.82;100.00;99193.53;10487980;28;20041;-72
2020/12/12 19:49:57;;;;;;;35.63;23.30;;;;;;;6.81;100.00;99197.06;10497132;28;20044;-72
2020/12/12 19:54:58;;;;;;;43.47;25.98;;;;;;;6.88;100.00;99195.78;10488407;28;20048;-72
2020/12/12 19:59:59;;;;;;;40.42;25.75;;;;;;;6.87;100.00;99212.31;10498322;28;20056;-71
2020/12/12 20:05:00;;;;;;;37.50;24.02;;;;;;;6.82;100.00;99214.34;10484975;28;20056;-71
2020/12/12 20:10:01;;;;;;;35.45;23.05;;;;;;;6.81;100.00;99220.47;10497346;28;20132;-71
2020/12/12 20:15:03;;;;;;;39.38;25.08;;;;;;;6.80;100.00;99220.59;10487264;28;20048;-71
2020/12/12 20:20:04;;;;;;;42.92;25.83;;;;;;;6.85;100.00;99224.59;10470417;28;20082;-72
2020/12/12 20:25:06;;;;;;;42.08;26.17;;;;;;;6.84;100.00;99225.50;10488952;28;20067;-72
2020/12/12 20:30:07;;;;;;;48.85;27.30;;;;;;;6.93;100.00;99236.31;10495842;28;20064;-72
2020/12/12 20:35:08;;;;;;;47.63;27.98;;;;;;;6.88;100.00;99240.00;10496613;28;20053;-71
2020/12/12 20:40:10;;;;;;;45.17;26.67;;;;;;;6.92;100.00;99239.81;10494931;28;20048;-71
2020/12/12 20:45:10;;;;;;;40.97;25.80;;;;;;;6.83;100.00;99254.19;10482725;28;20480;-71
2020/12/12 20:50:12;;;;;;;39.75;25.23;;;;;;;6.87;100.00;99253.94;10490605;28;20534;-71
2020/12/12 20:55:14;;;;;;;38.95;23.83;;;;;;;6.82;100.00;99255.13;10485697;28;20554;-71
2020/12/12 21:00:14;;;;;;;41.63;24.92;;;;;;;6.87;100.00;99266.09;10493679;28;20049;-72
2020/12/12 21:05:15;;;;;;;44.78;26.50;;;;;;;6.83;100.00;99262.84;10484861;28;20072;-72
2020/12/12 21:10:17;;;;;;;46.40;28.33;;;;;;;6.87;100.00;99268.69;10493415;28;20424;-72
2020/12/12 21:15:18;;;;;;;39.58;24.23;;;;;;;6.82;100.00;99275.94;10487343;28;20176;-71
2020/12/12 21:20:20;;;;;;;42.30;26.13;;;;;;;6.90;100.00;99275.50;10492918;28;20420;-72
2020/12/12 21:25:22;;;;;;;39.28;23.83;;;;;;;6.80;100.00;99281.22;10491036;28;20090;-72
2020/12/12 21:30:27;;;;;;;38.60;25.05;;;;;;;6.81;100.00;99288.09;10491331;28;20068;-71
2020/12/12 21:35:28;;;;;;;40.47;24.10;;;;;;;6.80;100.00;99294.25;10472111;28;20408;-71
2020/12/12 21:40:29;;;;;;;36.88;22.13;;;;;;;6.86;100.00;99303.44;10494648;28;20052;-71
2020/12/12 21:45:30;;;;;;;38.10;22.20;;;;;;;6.82;100.00;99301.94;10471997;28;20056;-71
2020/12/12 21:50:34;;;;;;;37.60;23.73;;;;;;;6.84;100.00;99310.50;10492904;28;20055;-71
2020/12/12 21:55:35;;;;;;;36.15;22.48;;;;;;;6.85;100.00;99315.63;10486898;28;20075;-71
2020/12/12 22:00:37;;;;;;;43.53;24.15;;;;;;;6.84;100.00;99319.13;10484766;28;20048;-71
2020/12/12 22:05:47;;;;;;;36.38;20.73;;;;;;;6.82;100.00;99318.38;10486563;28;20053;-72
2020/12/12 22:10:49;;;;;;;38.15;22.05;;;;;;;6.84;100.00;99331.31;10484663;28;20496;-72
2020/12/12 22:15:50;;;;;;;39.30;22.95;;;;;;;6.87;100.00;99331.13;10480631;28;20057;-72
2020/12/12 22:20:51;;;;;;;39.85;22.70;;;;;;;6.93;100.00;99335.13;10492611;28;20048;-71
2020/12/12 22:25:52;;;;;;;36.95;22.08;;;;;;;6.86;100.00;99340.69;10493876;28;20052;-72
2020/12/12 22:30:53;;;;;;;34.45;21.10;;;;;;;6.86;100.00;99340.69;10456622;28;20760;-72
2020/12/12 22:35:56;;;;;;;35.55;20.75;;;;;;;6.81;100.00;99347.91;10485010;28;20054;-73
2020/12/12 22:40:57;;;;;;;41.20;24.10;;;;;;;6.86;100.00;99347.66;10483953;28;20049;-74
2020/12/12 22:45:59;;;;;;;37.42;22.80;;;;;;;6.82;100.00;99354.78;10483600;28;20053;-74
2020/12/12 22:51:19;;;;;;;42.47;23.92;;;;;;;6.86;100.00;99363.25;10489796;28;20161;-73
2020/12/12 22:56:20;;;;;;;38.38;22.95;;;;;;;6.83;100.00;99372.06;10484060;28;20131;-74
2020/12/12 23:01:23;;;;;;;37.22;22.55;;;;;;;6.82;100.00;99375.59;10474693;28;20052;-73
2020/12/12 23:06:25;;;;;;;38.03;22.00;;;;;;;6.80;100.00;99384.41;10478833;28;20075;-73
2020/12/12 23:11:26;;;;;;;43.90;26.38;;;;;;;6.82;100.00;99380.78;10485819;28;20526;-74